City Of Cleveland — WDC2358 — position and weather

sailwx.info

Track history (hours):
 
Tides and Currents Weather Stations Pressure Air Temp Water Temp Dewpoint Dewpoint Depression Visibility Wind Speed Wind Dir Waves Ship Positions

City Of Cleveland

Owner: JANTRAN, INC., ROSEDALE, MS. More information available from US FCC via Universal Licensing System and Coast Guard Vessel Documentation Center.

Last reported at 2014-Dec-12 13:29 UTC. Time now 2014-Dec-20 09:44 UTC.
Position N 30°04' W 090°54'.

Length 42 m; draft 12.5 m.

Type: Towing. MMSI: 366991810.

Date/timePositionNaut miles runAvg speedWind from/ knotsBaromVisibWave heightAir tempDewpointWater temp
2014-Dec-12 13:29N 30°04' W 090°54'0 0.0
2014-Dec-12 12:14N 30°04' W 090°54'7 1.7
2014-Dec-12 08:21N 29°59' W 090°50'0 0.0
2014-Dec-12 06:24N 29°59' W 090°50'0 0.0
2014-Dec-12 05:21N 29°59' W 090°50'0 0.0
2014-Dec-12 04:31N 29°59' W 090°50'0 0.2
2014-Dec-12 03:33N 29°59' W 090°50'26 1.8
2014-Dec-11 13:14N 29°56' W 090°20'3 3.8
2014-Dec-11 12:31N 29°58' W 090°17'2 1.7
2014-Dec-11 11:31N 29°58' W 090°16'1 0.9
2014-Dec-11 10:31N 29°58' W 090°15'0 0.0
2014-Dec-11 09:33N 29°58' W 090°15'0 0.0
2014-Dec-11 08:31N 29°58' W 090°15'0 0.0
2014-Dec-11 07:29N 29°58' W 090°15'0 0.0
2014-Dec-11 06:28N 29°58' W 090°15'0 0.0
2014-Dec-11 05:27N 29°58' W 090°15'0 0.0
2014-Dec-11 04:27N 29°58' W 090°15'7 0.8
2014-Dec-10 19:24N 29°54' W 090°07'0 0.0
2014-Dec-10 18:27N 29°54' W 090°07'57 1.9
2014-Dec-09 12:20N 30°11' W 091°10'4 5.3
2014-Dec-09 11:32N 30°15' W 091°07'7 5.8
2014-Dec-09 10:24N 30°17' W 091°14'5 4.2
2014-Dec-09 09:11N 30°20' W 091°09'  
Track history (hours):
 
Tides and Currents Weather Stations Pressure Air Temp Water Temp Dewpoint Dewpoint Depression Visibility Wind Speed Wind Dir Waves Ship Positions

City Of Cleveland

Owner: JANTRAN, INC., ROSEDALE, MS. More information available from US FCC via Universal Licensing System and Coast Guard Vessel Documentation Center.

Last reported at 2014-Dec-12 13:29 UTC. Time now 2014-Dec-20 09:44 UTC.
Position N 30°04' W 090°54'.

Length 42 m; draft 12.5 m.

Type: Towing. MMSI: 366991810.

Date/timePositionNaut miles runAvg speedWind from/ knotsBaromVisibWave heightAir tempDewpointWater temp
2014-Dec-12 13:29N 30°04' W 090°54'0 0.0
2014-Dec-12 12:14N 30°04' W 090°54'7 1.7
2014-Dec-12 08:21N 29°59' W 090°50'0 0.0
2014-Dec-12 06:24N 29°59' W 090°50'0 0.0
2014-Dec-12 05:21N 29°59' W 090°50'0 0.0
2014-Dec-12 04:31N 29°59' W 090°50'0 0.2
2014-Dec-12 03:33N 29°59' W 090°50'26 1.8
2014-Dec-11 13:14N 29°56' W 090°20'3 3.8
2014-Dec-11 12:31N 29°58' W 090°17'2 1.7
2014-Dec-11 11:31N 29°58' W 090°16'1 0.9
2014-Dec-11 10:31N 29°58' W 090°15'0 0.0
2014-Dec-11 09:33N 29°58' W 090°15'0 0.0
2014-Dec-11 08:31N 29°58' W 090°15'0 0.0
2014-Dec-11 07:29N 29°58' W 090°15'0 0.0
2014-Dec-11 06:28N 29°58' W 090°15'0 0.0
2014-Dec-11 05:27N 29°58' W 090°15'0 0.0
2014-Dec-11 04:27N 29°58' W 090°15'7 0.8
2014-Dec-10 19:24N 29°54' W 090°07'0 0.0
2014-Dec-10 18:27N 29°54' W 090°07'57 1.9
2014-Dec-09 12:20N 30°11' W 091°10'4 5.3
2014-Dec-09 11:32N 30°15' W 091°07'7 5.8
2014-Dec-09 10:24N 30°17' W 091°14'5 4.2
2014-Dec-09 09:11N 30°20' W 091°09'  

Dump ship's entire track history